createdAt,value
2018-07-12T00:01:50.157Z,99.90
2018-07-12T00:10:18.943Z,99.90
2018-07-12T00:12:52.156Z,99.90
2018-07-12T00:15:28.266Z,99.90
2018-07-12T00:53:20.366Z,99.90
2018-07-12T01:01:08.667Z,99.90
2018-07-12T01:03:42.535Z,99.90
2018-07-12T01:06:14.847Z,99.90
2018-07-12T01:08:45.015Z,99.90
2018-07-12T01:11:31.664Z,99.90
2018-07-12T01:16:41.909Z,99.90
2018-07-12T01:19:18.058Z,99.90
2018-07-12T01:24:32.821Z,99.90
2018-07-12T01:27:57.952Z,99.90
2018-07-12T01:43:24.773Z,99.90
2018-07-12T01:45:59.391Z,99.90
2018-07-12T01:48:41.133Z,99.90
2018-07-12T01:53:53.247Z,99.90
2018-07-12T01:56:24.307Z,99.90
2018-07-12T01:59:06.189Z,99.90
2018-07-12T02:01:38.787Z,99.90
2018-07-12T02:06:51.674Z,99.90
2018-07-12T02:09:23.213Z,99.90
2018-07-12T02:12:07.340Z,99.90
2018-07-12T02:14:40.590Z,99.90
2018-07-12T02:22:32.517Z,99.90
2018-07-12T02:25:08.144Z,99.90
2018-07-12T02:27:45.028Z,99.90
2018-07-12T02:30:17.162Z,99.90
2018-07-12T02:32:48.839Z,99.90
2018-07-12T02:35:21.951Z,99.90
2018-07-12T02:37:53.798Z,99.90
2018-07-12T02:40:28.124Z,99.90
2018-07-12T02:42:58.133Z,99.90
2018-07-12T02:45:31.763Z,99.90
2018-07-12T02:48:14.690Z,99.90
2018-07-12T02:50:49.959Z,99.90
2018-07-12T02:53:28.697Z,99.90
2018-07-12T02:55:59.273Z,99.90
2018-07-12T02:58:32.877Z,99.90
2018-07-12T03:01:02.773Z,99.90
2018-07-12T03:03:38.826Z,99.90
2018-07-12T03:06:13.953Z,99.90
2018-07-12T03:08:50.013Z,99.90
2018-07-12T03:11:21.560Z,99.90
2018-07-12T03:13:53.238Z,99.90
2018-07-12T03:16:32.115Z,99.90
2018-07-12T03:19:13.158Z,99.90
2018-07-12T03:29:44.374Z,99.90
2018-07-12T03:32:20.492Z,99.90
2018-07-12T03:34:52.660Z,99.90
2018-07-12T03:37:31.352Z,99.90
2018-07-12T03:40:03.113Z,99.90
2018-07-12T03:42:41.364Z,99.90
2018-07-12T03:45:11.869Z,99.90
2018-07-12T03:47:49.040Z,99.90
2018-07-12T03:50:26.370Z,99.90
2018-07-12T03:53:10.733Z,99.90
2018-07-12T03:55:44.124Z,99.90
2018-07-12T03:58:15.589Z,99.90
2018-07-12T04:03:45.370Z,99.90
2018-07-12T04:06:15.818Z,99.90
2018-07-12T04:08:45.626Z,99.90
2018-07-12T04:11:16.099Z,99.90
2018-07-12T04:17:12.093Z,99.90
2018-07-12T04:19:45.179Z,99.90
2018-07-12T04:22:14.946Z,99.90
2018-07-12T04:24:50.073Z,99.90
2018-07-12T04:27:24.409Z,99.90
2018-07-12T04:29:58.896Z,99.90
2018-07-12T04:32:34.622Z,99.90
2018-07-12T04:37:49.902Z,99.90
2018-07-12T04:40:33.046Z,99.90
2018-07-12T04:43:02.997Z,99.90
2018-07-12T04:45:53.140Z,99.90
2018-07-12T04:48:25.880Z,99.90
2018-07-12T04:50:56.004Z,99.90
2018-07-12T04:53:26.913Z,99.90
2018-07-12T04:55:57.056Z,99.90
2018-07-12T04:58:27.346Z,99.90
2018-07-12T05:00:57.741Z,99.90
2018-07-12T05:03:27.625Z,99.90
2018-07-12T05:05:57.267Z,99.90
2018-07-12T05:08:26.939Z,99.90
2018-07-12T05:10:56.707Z,99.90
2018-07-12T05:13:27.381Z,99.90
2018-07-12T05:15:57.173Z,99.90
2018-07-12T05:18:27.325Z,99.90
2018-07-12T05:20:59.211Z,99.90
2018-07-12T05:23:29.248Z,99.90
2018-07-12T05:25:59.034Z,99.90
2018-07-12T05:28:30.498Z,99.90
2018-07-12T05:31:07.177Z,99.90
2018-07-12T05:33:37.150Z,99.90
2018-07-12T05:36:24.624Z,99.90
2018-07-12T05:39:11.299Z,99.90
2018-07-12T05:41:49.939Z,99.90
2018-07-12T05:44:28.494Z,99.90
2018-07-12T05:47:18.206Z,99.90
2018-07-12T05:49:51.202Z,99.90
2018-07-12T05:52:23.970Z,99.90
2018-07-12T05:55:20.249Z,99.90
2018-07-12T05:58:02.271Z,99.90
2018-07-12T06:00:46.625Z,99.90
2018-07-12T06:03:32.701Z,99.90
2018-07-12T06:06:22.516Z,99.90
2018-07-12T06:08:57.075Z,99.90
2018-07-12T06:11:31.639Z,99.90
2018-07-12T06:14:09.738Z,99.90
2018-07-12T06:17:07.780Z,99.90
2018-07-12T06:19:41.320Z,99.90
2018-07-12T06:22:21.475Z,99.90
2018-07-12T06:24:54.301Z,99.90
2018-07-12T06:27:35.285Z,99.90
2018-07-12T06:30:08.365Z,99.90
2018-07-12T06:32:44.515Z,99.90
2018-07-12T06:35:31.503Z,99.90
2018-07-12T06:38:06.613Z,99.90
2018-07-12T06:40:42.304Z,99.90
2018-07-12T06:45:59.055Z,99.90
2018-07-12T06:48:34.877Z,99.90
2018-07-12T06:51:10.671Z,99.90
2018-07-12T06:53:47.636Z,99.90
2018-07-12T06:56:22.609Z,99.90
2018-07-12T06:59:04.101Z,99.90
2018-07-12T07:01:45.841Z,99.90
2018-07-12T07:04:22.320Z,99.90
2018-07-12T07:06:55.566Z,99.90
2018-07-12T07:09:33.803Z,99.90
2018-07-12T07:12:15.460Z,99.90
2018-07-12T07:14:53.176Z,99.90
2018-07-12T07:17:31.409Z,99.90
2018-07-12T07:20:08.694Z,99.90
2018-07-12T07:23:04.364Z,99.90
2018-07-12T07:25:50.876Z,99.90
2018-07-12T07:31:10.639Z,99.90
2018-07-12T07:33:51.872Z,99.90
2018-07-12T07:36:25.586Z,99.90
2018-07-12T07:39:18.868Z,99.90
2018-07-12T07:42:09.810Z,99.90
2018-07-12T07:44:43.510Z,99.90
2018-07-12T07:47:20.018Z,99.90
2018-07-12T07:49:56.654Z,99.90
2018-07-12T07:52:38.440Z,99.90
2018-07-12T07:55:10.962Z,99.90
2018-07-12T07:57:43.731Z,99.90
2018-07-12T08:00:22.563Z,99.90
2018-07-12T08:02:58.035Z,99.90
2018-07-12T08:05:44.570Z,99.90
2018-07-12T08:08:21.786Z,99.90
2018-07-12T08:11:00.641Z,99.90
2018-07-12T08:13:37.692Z,99.90
2018-07-12T08:16:12.409Z,99.90
2018-07-12T08:18:53.979Z,99.90
2018-07-12T08:21:40.756Z,99.90
2018-07-12T08:24:14.478Z,99.90
2018-07-12T08:26:54.085Z,99.90
2018-07-12T08:29:39.080Z,99.90
2018-07-12T08:32:17.298Z,99.90
2018-07-12T08:35:06.235Z,99.90
2018-07-12T08:37:59.330Z,99.90
2018-07-12T08:40:43.997Z,99.90
2018-07-12T08:43:27.754Z,99.90
2018-07-12T08:46:25.387Z,99.90
2018-07-12T08:49:00.660Z,99.90
2018-07-12T08:52:01.256Z,99.90
2018-07-12T08:54:34.214Z,99.90
2018-07-12T09:00:14.172Z,99.90
2018-07-12T09:03:04.128Z,99.90
2018-07-12T09:05:42.971Z,99.90
2018-07-12T09:08:19.023Z,99.90
2018-07-12T09:10:57.141Z,99.90
2018-07-12T09:13:34.592Z,99.90
2018-07-12T09:16:10.232Z,99.90
2018-07-12T09:18:46.163Z,99.90
2018-07-12T09:27:51.148Z,99.90
2018-07-12T09:30:37.074Z,99.90
2018-07-12T09:40:39.724Z,99.90
2018-07-12T09:43:38.339Z,99.90
2018-07-12T09:49:05.608Z,99.90
2018-07-12T09:51:42.691Z,99.90
2018-07-12T09:54:59.176Z,99.90
2018-07-12T11:33:58.489Z,99.90
2018-07-12T11:50:34.020Z,99.90
2018-07-12T11:53:06.464Z,99.90
2018-07-12T11:55:39.715Z,99.90
2018-07-12T13:21:18.710Z,99.90
2018-07-12T13:36:06.535Z,99.90
2018-07-12T14:33:45.407Z,99.90
2018-07-12T14:36:26.180Z,99.90
2018-07-12T14:39:15.860Z,99.90
2018-07-12T15:01:33.776Z,88.70
2018-07-12T15:04:11.883Z,92.10
2018-07-12T15:06:46.195Z,92.30
2018-07-12T15:09:23.677Z,84.70
2018-07-12T15:12:12.754Z,77.10
2018-07-12T15:21:11.170Z,78.10
2018-07-12T15:23:45.687Z,77.30
2018-07-12T15:26:22.026Z,67.80
2018-07-12T15:29:01.601Z,67.30
2018-07-12T15:31:34.406Z,68.50
2018-07-12T15:34:16.186Z,68.60
2018-07-12T15:36:49.626Z,63.20
2018-07-12T15:39:23.553Z,61.60
2018-07-12T15:42:00.775Z,60.30
2018-07-12T15:44:35.335Z,58.90
2018-07-12T15:47:10.084Z,58.70
2018-07-12T15:49:42.418Z,57.40
2018-07-12T15:52:15.063Z,55.80
2018-07-12T15:54:52.399Z,55.60
2018-07-12T15:57:25.466Z,54.00
2018-07-12T15:59:58.172Z,54.60
2018-07-12T16:02:38.930Z,53.00
2018-07-12T16:05:12.548Z,52.90
2018-07-12T16:07:51.067Z,53.50
2018-07-12T16:10:25.362Z,53.10
2018-07-12T16:12:58.772Z,53.40
2018-07-12T16:16:01.055Z,53.80
2018-07-12T16:18:38.500Z,53.40
2018-07-12T16:21:11.316Z,53.00
2018-07-12T16:23:47.898Z,51.00
2018-07-12T16:26:24.880Z,52.90
2018-07-12T16:28:57.755Z,52.90
2018-07-12T16:31:31.005Z,52.90
2018-07-12T16:34:07.686Z,52.90
2018-07-12T16:39:38.547Z,51.70
2018-07-12T16:45:26.370Z,52.40
2018-07-12T16:48:11.484Z,52.30
2018-07-12T16:51:09.904Z,51.80
2018-07-12T16:53:56.963Z,50.90
2018-07-12T16:56:36.901Z,48.30
2018-07-12T16:59:18.039Z,49.00
2018-07-12T17:22:34.062Z,48.00
2018-07-12T17:25:21.466Z,47.30
2018-07-12T17:27:56.952Z,47.30
2018-07-12T17:30:33.256Z,46.00
2018-07-12T17:33:09.160Z,46.80
2018-07-12T17:35:47.010Z,47.50
2018-07-12T17:38:24.411Z,46.50
2018-07-12T17:40:58.748Z,46.70
2018-07-12T17:43:35.085Z,47.10
2018-07-12T17:46:12.485Z,47.10
2018-07-12T17:48:56.408Z,46.90
2018-07-12T17:51:34.178Z,48.00
2018-07-12T17:54:06.941Z,47.80
2018-07-12T17:56:40.859Z,48.50
2018-07-12T17:59:30.132Z,48.70
2018-07-12T18:10:35.537Z,48.70
2018-07-12T18:13:11.745Z,48.20
2018-07-12T18:15:51.602Z,46.70
2018-07-12T18:18:25.939Z,46.90
2018-07-12T18:21:04.543Z,46.50
2018-07-12T18:26:34.363Z,45.80
2018-07-12T18:29:12.906Z,45.90
2018-07-12T18:31:46.732Z,46.50
2018-07-12T18:41:15.174Z,48.30
2018-07-12T18:44:35.924Z,48.00
2018-07-12T18:47:21.391Z,46.80
2018-07-12T18:53:05.909Z,45.80
2018-07-12T18:58:42.565Z,45.90
2018-07-12T19:01:22.910Z,46.20
2018-07-12T19:03:58.021Z,47.20
2018-07-12T19:06:48.260Z,47.70
2018-07-12T19:09:41.436Z,49.10
2018-07-12T19:12:20.690Z,51.30
2018-07-12T19:14:56.942Z,51.20
2018-07-12T20:16:46.042Z,53.80
2018-07-12T20:33:18.422Z,51.30
2018-07-12T20:35:51.884Z,51.80
2018-07-12T20:38:25.976Z,52.60
2018-07-12T20:41:00.645Z,50.90
2018-07-12T20:43:37.693Z,49.50
2018-07-12T20:46:12.376Z,49.10
2018-07-12T20:48:54.053Z,51.10
2018-07-12T20:51:34.916Z,51.70
2018-07-12T20:56:50.057Z,54.10
2018-07-12T20:59:32.076Z,55.10
2018-07-12T21:05:00.848Z,56.90
2018-07-12T21:07:34.021Z,58.80
2018-07-12T21:15:45.650Z,59.40
2018-07-12T21:18:20.789Z,60.20
2018-07-12T21:20:59.482Z,60.60
2018-07-12T21:23:35.988Z,61.90
2018-07-12T21:26:19.150Z,67.10
2018-07-12T21:29:01.506Z,76.70
2018-07-12T21:31:43.974Z,82.10
2018-07-12T21:34:23.699Z,77.50
2018-07-12T21:37:03.913Z,73.20
2018-07-12T21:39:48.546Z,70.40
2018-07-12T21:42:31.508Z,70.60
2018-07-12T21:45:20.764Z,71.00
2018-07-12T21:47:59.803Z,72.30
2018-07-12T21:53:25.232Z,68.00
2018-07-12T21:56:14.260Z,69.90
2018-07-12T21:58:52.728Z,67.50
2018-07-12T22:01:34.524Z,65.30
2018-07-12T22:04:09.658Z,69.70
2018-07-12T22:08:59.307Z,72.60
2018-07-12T22:11:41.367Z,74.10
2018-07-12T22:14:22.455Z,67.50
2018-07-12T22:17:08.249Z,62.70
2018-07-12T22:19:48.955Z,64.80
2018-07-12T22:22:29.527Z,63.30
2018-07-12T22:25:17.253Z,64.20
2018-07-12T22:28:26.315Z,62.50
2018-07-12T22:31:01.586Z,63.30
2018-07-12T22:33:42.110Z,69.50
2018-07-12T22:36:14.867Z,72.90
2018-07-12T22:38:54.546Z,83.90
2018-07-12T22:41:32.288Z,82.70
2018-07-12T22:46:53.347Z,88.50
2018-07-12T22:52:20.425Z,91.80
2018-07-12T22:55:13.841Z,91.50
2018-07-12T22:58:06.942Z,90.90
2018-07-12T23:00:49.531Z,92.00
2018-07-12T23:03:30.937Z,94.70
2018-07-12T23:06:14.389Z,95.00
2018-07-12T23:08:57.795Z,95.20
2018-07-12T23:11:37.873Z,98.20
2018-07-12T23:14:20.938Z,99.60
2018-07-12T23:16:58.689Z,97.00
2018-07-12T23:19:41.295Z,99.90
2018-07-12T23:22:15.503Z,99.90
2018-07-12T23:24:52.729Z,99.90
2018-07-12T23:27:33.810Z,99.90
2018-07-12T23:30:09.488Z,99.90
2018-07-12T23:32:50.546Z,99.90
2018-07-12T23:35:31.350Z,99.90
2018-07-12T23:38:12.114Z,99.90
2018-07-12T23:40:57.316Z,99.90
2018-07-12T23:43:34.105Z,99.90
2018-07-12T23:46:10.718Z,99.90
2018-07-12T23:48:49.681Z,99.90
2018-07-12T23:51:31.747Z,99.90
2018-07-12T23:57:14.892Z,99.90
2018-07-12T23:59:49.532Z,99.90
